Time;durP1;ratioP1;P1;durP2;ratioP2;P2;SDS_P1;SDS_P2;PMS_P1;PMS_P2;Temp;Humidity;BMP_temperature;BMP_pressure;BME280_temperature;BME280_humidity;BME280_pressure;Samples;Min_cycle;Max_cycle;Signal;HPM_P1;HPM_P2
2022/06/07 00:00:43;;;;;;;4.50;1.75;;;12.00;99.90;;;;;;5091486;28;20235;-56
2022/06/07 00:03:09;;;;;;;3.47;2.17;;;12.00;99.90;;;;;;5086494;28;20192;-57
2022/06/07 00:05:34;;;;;;;8.30;4.40;;;12.10;99.90;;;;;;5071384;28;20252;-56
2022/06/07 00:08:00;;;;;;;6.20;3.00;;;12.10;99.90;;;;;;5071331;28;20181;-57
2022/06/07 00:10:26;;;;;;;4.13;1.93;;;12.00;99.90;;;;;;5071234;28;20685;-57
2022/06/07 00:12:52;;;;;;;23.63;9.47;;;12.10;99.90;;;;;;5071576;28;20271;-56
2022/06/07 00:15:18;;;;;;;16.27;7.07;;;12.10;99.90;;;;;;5070490;28;20173;-57
2022/06/07 00:17:44;;;;;;;7.17;2.20;;;12.10;99.90;;;;;;5077826;28;20228;-56
2022/06/07 00:20:11;;;;;;;4.45;1.80;;;12.10;99.90;;;;;;5080367;28;20690;-59
2022/06/07 00:22:37;;;;;;;6.37;1.77;;;12.10;99.90;;;;;;5071063;28;20192;-55
2022/06/07 00:25:06;;;;;;;6.22;2.80;;;12.00;99.90;;;;;;5079504;28;20172;-55
2022/06/07 00:27:32;;;;;;;6.60;1.90;;;12.00;99.90;;;;;;5077985;28;20184;-55
2022/06/07 00:29:58;;;;;;;12.50;4.15;;;12.00;99.90;;;;;;5071794;28;20172;-55
2022/06/07 00:32:24;;;;;;;9.87;2.90;;;11.90;99.90;;;;;;5070594;28;20579;-55
2022/06/07 00:34:50;;;;;;;8.07;1.80;;;11.90;99.90;;;;;;5071080;28;20204;-55
2022/06/07 00:37:16;;;;;;;5.87;1.70;;;11.90;99.90;;;;;;5070842;28;20620;-55
2022/06/07 00:39:41;;;;;;;4.93;1.70;;;11.70;99.90;;;;;;5070639;28;20266;-55
2022/06/07 00:42:08;;;;;;;5.60;1.50;;;11.60;99.90;;;;;;5076336;28;20204;-55
2022/06/07 00:44:41;;;;;;;3.37;1.53;;;11.80;99.90;;;;;;5083018;28;20184;-55
2022/06/07 00:47:26;;;;;;;6.43;1.50;;;11.70;99.90;;;;;;5070647;28;20195;-56
2022/06/07 00:50:06;;;;;;;3.87;1.60;;;11.70;99.90;;;;;;5070324;28;20725;-55
2022/06/07 00:52:34;;;;;;;3.57;1.23;;;11.70;99.90;;;;;;5070657;28;20540;-56
2022/06/07 00:55:01;;;;;;;5.97;1.63;;;15.00;99.90;;;;;;5070130;28;20260;-56
2022/06/07 00:57:27;;;;;;;9.50;2.83;;;11.70;99.90;;;;;;5070333;28;20169;-56
2022/06/07 00:59:53;;;;;;;6.17;2.00;;;11.60;99.90;;;;;;5077311;28;20768;-56
2022/06/07 01:02:20;;;;;;;8.70;2.53;;;11.60;99.90;;;;;;5090771;28;20256;-56
2022/06/07 01:04:46;;;;;;;5.40;1.63;;;11.50;99.90;;;;;;5090487;28;20167;-55
2022/06/07 01:12:40;;;;;;;4.43;1.83;;;;;;;;;;5090590;28;20179;-57
2022/06/07 01:15:08;;;;;;;9.13;2.80;;;11.50;99.90;;;;;;5090609;28;20172;-56
2022/06/07 01:17:34;;;;;;;8.37;2.70;;;11.40;99.90;;;;;;5089981;28;20192;-57
2022/06/07 01:19:59;;;;;;;8.87;1.77;;;11.30;99.90;;;;;;5081141;28;20645;-57
2022/06/07 01:22:25;;;;;;;4.27;2.30;;;;;;;;;;5068853;28;20176;-56
2022/06/07 01:24:53;;;;;;;9.37;3.13;;;11.30;99.90;;;;;;5069968;28;20702;-56
2022/06/07 01:27:20;;;;;;;9.23;3.27;;;11.20;99.90;;;;;;5081371;28;20180;-57
2022/06/07 01:29:46;;;;;;;7.03;2.90;;;11.20;99.90;;;;;;5071281;28;20177;-56
2022/06/07 01:32:13;;;;;;;10.07;2.23;;;11.20;99.90;;;;;;5070155;28;20191;-56
2022/06/07 01:34:41;;;;;;;12.57;2.33;;;11.20;99.90;;;;;;5089434;28;20179;-56
2022/06/07 01:37:09;;;;;;;4.23;2.00;;;11.00;99.90;;;;;;5090345;28;20195;-56
2022/06/07 01:42:20;;;;;;;5.13;1.77;;;11.10;99.90;;;;;;5090455;28;20214;-57
2022/06/07 01:44:48;;;;;;;3.87;1.97;;;11.10;99.90;;;;;;5089942;28;20554;-56
2022/06/07 01:47:19;;;;;;;9.27;1.90;;;11.10;99.90;;;;;;5089738;28;20168;-56
2022/06/07 01:49:45;;;;;;;5.00;2.30;;;11.10;99.90;;;;;;5090246;28;20425;-56
2022/06/07 01:52:13;;;;;;;6.07;1.83;;;11.00;99.90;;;;;;5090382;28;20221;-57
2022/06/07 01:54:39;;;;;;;7.43;1.90;;;11.00;99.90;;;;;;5089713;28;20171;-57
2022/06/07 01:57:05;;;;;;;4.53;1.87;;;10.70;99.90;;;;;;5090327;28;20186;-57
2022/06/07 01:59:32;;;;;;;7.07;1.80;;;10.90;99.90;;;;;;5072969;28;20184;-56
2022/06/07 02:01:59;;;;;;;8.47;2.70;;;10.90;99.90;;;;;;5089427;28;20204;-57
2022/06/07 02:04:24;;;;;;;5.50;1.90;;;10.90;99.90;;;;;;5090253;28;20654;-57
2022/06/07 02:06:50;;;;;;;4.57;1.73;;;10.90;99.90;;;;;;5092810;28;20172;-57
2022/06/07 02:09:17;;;;;;;4.50;1.97;;;10.90;99.90;;;;;;5088308;28;20169;-57
2022/06/07 02:11:42;;;;;;;10.33;2.27;;;10.90;99.90;;;;;;5073459;28;20208;-56
2022/06/07 02:14:09;;;;;;;3.93;1.73;;;10.90;99.90;;;;;;5073176;28;20200;-56
2022/06/07 02:16:35;;;;;;;5.57;2.20;;;10.90;99.90;;;;;;5073377;28;20683;-56
2022/06/07 02:19:01;;;;;;;11.93;2.00;;;10.90;99.90;;;;;;5081276;28;20251;-56
2022/06/07 02:21:27;;;;;;;3.93;2.17;;;10.80;99.90;;;;;;5090969;28;20298;-56
2022/06/07 02:23:52;;;;;;;5.43;2.30;;;10.80;99.90;;;;;;5092914;28;20630;-56
2022/06/07 02:26:18;;;;;;;4.40;2.20;;;10.70;99.90;;;;;;5093324;28;20634;-57
2022/06/07 02:28:49;;;;;;;5.77;2.30;;;10.70;99.90;;;;;;5089621;28;20172;-56
2022/06/07 02:31:16;;;;;;;11.97;2.40;;;10.70;99.90;;;;;;5082742;28;20262;-56
2022/06/07 02:33:42;;;;;;;5.23;2.23;;;10.70;99.90;;;;;;5072991;28;20212;-57
2022/06/07 02:36:10;;;;;;;10.53;2.70;;;10.70;99.90;;;;;;5075874;28;20176;-56
2022/06/07 02:38:36;;;;;;;4.43;2.50;;;10.70;99.90;;;;;;5072893;28;20648;-57
2022/06/07 02:41:05;;;;;;;6.70;2.23;;;10.60;99.90;;;;;;5072471;28;20224;-56
2022/06/07 02:44:06;;;;;;;3.77;2.40;;;9.50;99.90;;;;;;4736579;22;22129;-54
2022/06/07 02:46:32;;;;;;;9.40;2.33;;;10.90;99.90;;;;;;5050910;28;20220;-56
2022/06/07 02:48:57;;;;;;;7.10;2.10;;;10.60;99.90;;;;;;5052443;28;20177;-55
2022/06/07 02:51:23;;;;;;;8.13;2.00;;;10.50;99.90;;;;;;5052327;28;20965;-55
2022/06/07 02:53:49;;;;;;;5.27;2.30;;;10.50;99.90;;;;;;5052487;28;20177;-55
2022/06/07 02:56:15;;;;;;;5.87;2.00;;;10.50;99.90;;;;;;5052369;28;20184;-56
2022/06/07 02:58:40;;;;;;;4.13;1.87;;;10.40;99.90;;;;;;5052356;28;20235;-56
2022/06/07 03:01:06;;;;;;;4.33;1.80;;;10.50;99.90;;;;;;5052418;28;20212;-55
2022/06/07 03:03:32;;;;;;;9.53;2.27;;;10.50;99.90;;;;;;5052303;28;20689;-55
2022/06/07 03:05:57;;;;;;;6.87;2.10;;;10.50;99.90;;;;;;5051899;28;20261;-55
2022/06/07 03:08:23;;;;;;;6.40;2.50;;;10.50;99.90;;;;;;5052530;28;20228;-56
2022/06/07 03:10:50;;;;;;;6.33;2.60;;;10.50;99.90;;;;;;5052249;28;20635;-56
2022/06/07 03:13:17;;;;;;;5.23;2.27;;;10.40;99.90;;;;;;5052410;28;20181;-55
2022/06/07 03:15:43;;;;;;;6.30;2.50;;;10.40;99.90;;;;;;5052380;28;20227;-55
2022/06/07 03:18:09;;;;;;;4.60;2.40;;;10.40;99.90;;;;;;5051505;28;20286;-55
2022/06/07 03:20:36;;;;;;;5.27;2.77;;;10.40;99.90;;;;;;5051210;28;20209;-57
2022/06/07 03:23:02;;;;;;;5.73;3.07;;;;;;;;;;5051519;28;20264;-56
2022/06/07 03:25:27;;;;;;;10.43;2.60;;;10.50;99.90;;;;;;5051425;28;20169;-56
2022/06/07 03:27:54;;;;;;;12.87;3.03;;;10.50;99.90;;;;;;5051414;28;20561;-56
2022/06/07 03:30:20;;;;;;;8.13;2.70;;;10.40;99.90;;;;;;5051457;28;20177;-56
2022/06/07 03:32:46;;;;;;;8.17;2.67;;;10.40;99.90;;;;;;5051772;28;20184;-57
2022/06/07 03:35:14;;;;;;;7.17;2.77;;;10.30;99.90;;;;;;5051968;28;20200;-57
2022/06/07 03:37:40;;;;;;;7.00;2.13;;;10.30;99.90;;;;;;5052163;28;20165;-57
2022/06/07 03:40:08;;;;;;;8.50;2.57;;;10.30;99.90;;;;;;5051651;28;20216;-57
2022/06/07 03:42:34;;;;;;;13.80;2.80;;;10.30;99.90;;;;;;5051507;28;20632;-57
2022/06/07 03:45:00;;;;;;;6.37;2.60;;;9.90;99.90;;;;;;5051225;28;20223;-56
2022/06/07 03:47:26;;;;;;;4.90;2.10;;;9.90;99.90;;;;;;5051557;28;20181;-60
2022/06/07 03:49:52;;;;;;;3.70;2.00;;;10.10;99.90;;;;;;5051744;28;20498;-56
2022/06/07 03:52:18;;;;;;;6.60;2.23;;;10.20;99.90;;;;;;5051586;28;20665;-58
2022/06/07 03:54:44;;;;;;;9.50;2.80;;;10.00;99.90;;;;;;5051500;28;20704;-56
2022/06/07 03:57:11;;;;;;;7.47;2.50;;;10.00;99.90;;;;;;5051189;28;20181;-58
2022/06/07 03:59:37;;;;;;;4.43;2.73;;;10.10;99.90;;;;;;5051517;28;20177;-57
2022/06/07 04:02:04;;;;;;;11.77;3.20;;;9.80;99.90;;;;;;5051031;28;20216;-58
2022/06/07 04:04:30;;;;;;;8.93;2.87;;;9.90;99.90;;;;;;5051106;28;20184;-57
2022/06/07 04:09:41;;;;;;;7.63;2.80;;;9.90;99.90;;;;;;5051589;28;20717;-56
2022/06/07 04:12:12;;;;;;;8.47;2.77;;;10.20;99.90;;;;;;5050872;28;20181;-56
2022/06/07 04:14:42;;;;;;;4.57;2.53;;;10.20;99.90;;;;;;5050936;28;20169;-55
2022/06/07 04:17:09;;;;;;;5.13;2.80;;;10.10;99.90;;;;;;5050311;28;20658;-56
2022/06/07 04:19:36;;;;;;;5.73;2.83;;;10.30;99.90;;;;;;5050601;28;20707;-56
2022/06/07 04:22:03;;;;;;;7.63;2.90;;;10.10;99.90;;;;;;5050466;28;20209;-56
2022/06/07 04:24:29;;;;;;;8.90;2.53;;;10.10;99.90;;;;;;5050362;28;20184;-56
2022/06/07 04:26:55;;;;;;;6.33;2.60;;;10.10;99.90;;;;;;5049629;28;20549;-56
2022/06/07 04:29:22;;;;;;;8.37;3.10;;;10.20;99.90;;;;;;5050165;28;20262;-56
2022/06/07 04:31:48;;;;;;;6.10;3.17;;;10.20;99.90;;;;;;5051038;28;20165;-57
2022/06/07 04:34:13;;;;;;;12.17;3.00;;;10.20;99.90;;;;;;5050875;28;20639;-55
2022/06/07 04:36:39;;;;;;;6.30;3.07;;;10.10;99.90;;;;;;5050483;28;20239;-57
2022/06/07 04:39:07;;;;;;;4.53;3.00;;;10.20;99.90;;;;;;5050495;28;20181;-57
2022/06/07 04:41:33;;;;;;;5.93;2.67;;;;;;;;;;5050715;28;20213;-57
2022/06/07 04:43:59;;;;;;;8.80;3.37;;;10.10;99.90;;;;;;5050720;28;20190;-57
2022/06/07 04:46:26;;;;;;;5.47;2.90;;;10.20;99.90;;;;;;5050327;28;20632;-57
2022/06/07 04:48:52;;;;;;;6.37;2.90;;;10.30;99.90;;;;;;5050568;28;20538;-56
2022/06/07 04:51:24;;;;;;;5.57;3.00;;;10.20;99.90;;;;;;5050009;28;20260;-57
2022/06/07 04:53:51;;;;;;;9.97;3.23;;;10.30;99.90;;;;;;5050562;28;20263;-56
2022/06/07 04:56:25;;;;;;;5.53;2.90;;;10.30;99.90;;;;;;5050207;28;20193;-57
2022/06/07 04:58:52;;;;;;;7.00;3.30;;;10.30;99.90;;;;;;5050175;28;20176;-57
2022/06/07 05:01:23;;;;;;;6.17;3.60;;;10.20;99.90;;;;;;5050866;28;20698;-56
2022/06/07 05:03:49;;;;;;;9.60;3.50;;;10.40;99.90;;;;;;5050647;28;20238;-56
2022/06/07 05:06:36;;;;;;;6.57;3.50;;;10.50;99.90;;;;;;5049937;28;20179;-57
2022/06/07 05:09:10;;;;;;;12.30;3.00;;;10.50;99.90;;;;;;5050124;28;20231;-56
2022/06/07 05:11:35;;;;;;;3.63;2.80;;;10.50;99.90;;;;;;5050257;28;20169;-56
2022/06/07 05:14:03;;;;;;;8.43;3.10;;;10.50;99.90;;;;;;5049876;28;20173;-59
2022/06/07 05:16:29;;;;;;;5.83;3.37;;;10.60;99.90;;;;;;5050311;28;20177;-57
2022/06/07 05:18:56;;;;;;;15.67;4.03;;;10.70;99.90;;;;;;5049548;28;20183;-56
2022/06/07 05:21:23;;;;;;;13.67;3.37;;;10.70;99.90;;;;;;5050217;28;20212;-56
2022/06/07 05:23:49;;;;;;;11.47;3.30;;;10.70;99.90;;;;;;5050328;28;20185;-56
2022/06/07 05:26:20;;;;;;;10.10;3.20;;;10.70;99.90;;;;;;5049924;28;20243;-56
2022/06/07 05:28:45;;;;;;;7.03;3.17;;;10.80;99.90;;;;;;5050281;28;20169;-56
2022/06/07 05:31:12;;;;;;;6.47;3.20;;;10.80;99.90;;;;;;5050354;28;20184;-56
2022/06/07 05:33:38;;;;;;;7.90;3.30;;;;;;;;;;5049711;28;20179;-57
2022/06/07 05:36:04;;;;;;;7.67;3.53;;;11.10;99.90;;;;;;5049868;28;20572;-57
2022/06/07 05:38:30;;;;;;;16.23;3.83;;;10.90;99.90;;;;;;5049781;28;20204;-57
2022/06/07 05:40:56;;;;;;;5.63;3.67;;;11.00;99.90;;;;;;5052657;28;20566;-57
2022/06/07 05:43:22;;;;;;;10.03;3.90;;;11.10;99.90;;;;;;5053965;28;20165;-57
2022/06/07 05:45:49;;;;;;;9.93;4.00;;;11.20;99.90;;;;;;5053324;28;20297;-57
2022/06/07 05:48:15;;;;;;;5.90;3.70;;;11.20;99.90;;;;;;5053497;28;20177;-57
2022/06/07 05:50:43;;;;;;;9.77;3.87;;;11.30;99.90;;;;;;5053434;28;20177;-56
2022/06/07 05:53:09;;;;;;;10.53;4.10;;;11.40;99.90;;;;;;5053692;28;20639;-57
2022/06/07 05:55:35;;;;;;;10.37;3.47;;;11.40;99.90;;;;;;5053952;28;20548;-56
2022/06/07 05:58:01;;;;;;;16.13;4.10;;;11.50;99.90;;;;;;5053618;28;20616;-56
2022/06/07 06:00:26;;;;;;;10.10;4.17;;;11.60;99.90;;;;;;5053079;28;20565;-56
2022/06/07 06:02:52;;;;;;;9.90;4.07;;;11.60;99.90;;;;;;5053462;28;20586;-56
2022/06/07 06:05:18;;;;;;;12.40;4.97;;;11.70;99.90;;;;;;5053247;28;20655;-57
2022/06/07 06:10:39;;;;;;;13.70;4.37;;;11.80;99.90;;;;;;4998571;28;20183;-56
2022/06/07 06:13:05;;;;;;;9.70;4.00;;;12.20;99.90;;;;;;5053521;28;20303;-56
2022/06/07 06:15:31;;;;;;;14.70;4.27;;;12.00;99.90;;;;;;5053045;28;20173;-55
2022/06/07 06:17:56;;;;;;;12.00;4.10;;;12.20;99.90;;;;;;5053136;28;20177;-55
2022/06/07 06:20:23;;;;;;;11.13;4.00;;;12.30;99.90;;;;;;5053208;28;20690;-56
2022/06/07 06:22:49;;;;;;;11.97;4.73;;;12.40;99.90;;;;;;5053144;28;20662;-56
2022/06/07 06:25:14;;;;;;;14.80;4.43;;;13.80;99.90;;;;;;5052306;28;20252;-55
2022/06/07 06:27:40;;;;;;;11.87;4.50;;;12.60;99.90;;;;;;5052466;28;20267;-55
2022/06/07 06:30:07;;;;;;;9.17;4.67;;;12.70;99.90;;;;;;5052662;28;20380;-57
2022/06/07 06:32:33;;;;;;;10.83;4.67;;;12.90;99.90;;;;;;5052435;28;20185;-56
2022/06/07 06:34:59;;;;;;;6.70;4.30;;;13.00;99.90;;;;;;5052766;28;20227;-55
2022/06/07 06:37:27;;;;;;;10.13;3.92;;;13.10;99.90;;;;;;5052582;28;20260;-60
2022/06/07 06:39:53;;;;;;;9.20;4.03;;;13.20;99.90;;;;;;5051793;28;20253;-64
2022/06/07 06:42:19;;;;;;;11.53;4.53;;;13.30;99.90;;;;;;5051568;28;20201;-64
2022/06/07 06:44:44;;;;;;;10.23;4.40;;;13.40;99.90;;;;;;5051254;28;20355;-64
2022/06/07 06:47:11;;;;;;;8.07;3.33;;;13.60;99.90;;;;;;5033101;28;20187;-63
2022/06/07 06:49:38;;;;;;;8.98;4.20;;;13.60;99.90;;;;;;5052645;28;20643;-63
2022/06/07 06:52:04;;;;;;;9.60;3.70;;;13.80;99.90;;;;;;5051756;28;20208;-64
2022/06/07 06:54:33;;;;;;;8.85;4.05;;;13.70;99.90;;;;;;5052036;28;20193;-64
2022/06/07 06:56:59;;;;;;;5.32;3.97;;;13.80;99.90;;;;;;5051686;28;20185;-64
2022/06/07 06:59:25;;;;;;;11.70;4.50;;;13.90;99.90;;;;;;5051748;28;20181;-62
2022/06/07 07:01:51;;;;;;;10.73;4.53;;;14.00;99.90;;;;;;5051555;28;20219;-62
2022/06/07 07:04:19;;;;;;;9.02;4.30;;;14.20;99.90;;;;;;5052989;28;20181;-62
2022/06/07 07:06:47;;;;;;;8.23;4.07;;;14.20;99.90;;;;;;5069403;28;20173;-61
2022/06/07 07:09:14;;;;;;;10.32;4.10;;;14.70;99.90;;;;;;5071720;28;20172;-60
2022/06/07 07:11:46;;;;;;;9.85;2.92;;;14.60;99.90;;;;;;5052160;28;20219;-61
2022/06/07 07:14:12;;;;;;;6.72;3.72;;;14.60;99.90;;;;;;5052176;28;20173;-61
2022/06/07 07:16:41;;;;;;;13.63;3.20;;;14.70;99.90;;;;;;5051424;28;20170;-60
2022/06/07 07:19:08;;;;;;;8.45;2.90;;;14.80;99.90;;;;;;5051739;28;20585;-59
2022/06/07 07:21:36;;;;;;;6.93;3.00;;;15.00;99.90;;;;;;5051667;28;20209;-59
2022/06/07 07:24:04;;;;;;;9.73;3.13;;;15.20;99.90;;;;;;5050954;28;20177;-59
2022/06/07 07:26:31;;;;;;;6.93;3.42;;;15.40;99.90;;;;;;5051548;28;20173;-59
2022/06/07 07:28:57;;;;;;;7.25;3.53;;;15.60;99.90;;;;;;5051300;28;20188;-60
2022/06/07 07:31:30;;;;;;;9.23;3.80;;;15.60;99.90;;;;;;5051020;28;20177;-60
2022/06/07 07:33:57;;;;;;;8.55;4.35;;;15.80;99.90;;;;;;5059414;28;20294;-62
2022/06/07 07:36:22;;;;;;;9.25;4.28;;;16.10;99.90;;;;;;5071330;28;20254;-62
2022/06/07 07:38:49;;;;;;;9.05;4.32;;;16.50;99.90;;;;;;5059775;28;20627;-60
2022/06/07 07:41:14;;;;;;;10.55;4.03;;;16.80;99.90;;;;;;5050851;28;20209;-62
2022/06/07 07:43:40;;;;;;;8.00;4.65;;;17.20;99.90;;;;;;5051468;28;20174;-63
2022/06/07 07:46:06;;;;;;;10.13;4.13;;;17.40;99.90;;;;;;5053127;28;20269;-64
2022/06/07 07:48:32;;;;;;;10.95;4.80;;;17.70;99.90;;;;;;5051218;28;20192;-64
2022/06/07 07:51:07;;;;;;;8.98;4.35;;;17.70;99.90;;;;;;5050561;28;20208;-63
2022/06/07 07:53:33;;;;;;;8.15;4.80;;;18.00;99.90;;;;;;5041064;28;20169;-63
2022/06/07 07:55:59;;;;;;;7.15;3.85;;;17.90;99.90;;;;;;5050654;28;20260;-64
2022/06/07 07:58:24;;;;;;;7.68;4.65;;;18.10;99.90;;;;;;5050766;28;20291;-64
2022/06/07 08:00:51;;;;;;;9.60;4.13;;;17.80;99.90;;;;;;5060436;28;20248;-64
2022/06/07 08:03:18;;;;;;;9.60;3.58;;;17.80;99.90;;;;;;5056016;28;20384;-65
2022/06/07 08:05:44;;;;;;;8.18;3.90;;;17.90;99.90;;;;;;5050388;28;20644;-64
2022/06/07 08:08:11;;;;;;;12.02;3.90;;;17.90;99.90;;;;;;5050200;28;20183;-61
2022/06/07 08:10:38;;;;;;;10.82;3.67;;;17.80;99.90;;;;;;5049986;28;20535;-60
2022/06/07 08:13:04;;;;;;;7.30;3.60;;;17.70;99.90;;;;;;5050474;28;20620;-61
2022/06/07 08:15:32;;;;;;;6.57;3.92;;;16.50;99.90;;;;;;5049955;28;20647;-61
2022/06/07 08:18:01;;;;;;;6.72;3.53;;;17.60;99.90;;;;;;5050438;28;20188;-62
2022/06/07 08:20:29;;;;;;;7.95;3.40;;;17.60;99.90;;;;;;5050859;28;20219;-62
2022/06/07 08:22:55;;;;;;;6.88;3.67;;;17.90;99.90;;;;;;5049633;28;20177;-62
2022/06/07 08:25:21;;;;;;;6.07;3.00;;;18.50;99.90;;;;;;5050702;28;20622;-65
2022/06/07 08:27:47;;;;;;;11.45;3.70;;;18.70;99.90;;;;;;5050280;28;20176;-57
2022/06/07 08:30:13;;;;;;;7.00;3.33;;;18.80;99.90;;;;;;5050857;28;20172;-57
2022/06/07 08:32:40;;;;;;;6.80;3.30;;;18.70;99.90;;;;;;5049679;28;20247;-63
2022/06/07 08:37:56;;;;;;;9.18;3.63;;;18.60;99.90;;;;;;5050725;28;20192;-59
2022/06/07 08:40:30;;;;;;;10.50;3.08;;;18.90;99.90;;;;;;5050570;28;20595;-59
2022/06/07 08:42:58;;;;;;;7.00;2.90;;;18.90;99.90;;;;;;5050354;28;20648;-60
2022/06/07 08:45:30;;;;;;;7.03;3.00;;;19.10;99.90;;;;;;5049908;28;20225;-59
2022/06/07 08:48:00;;;;;;;8.85;2.75;;;19.50;99.90;;;;;;5049819;28;20223;-60
2022/06/07 08:50:31;;;;;;;7.60;2.45;;;19.80;99.90;;;;;;5050217;28;20636;-59
2022/06/07 08:53:13;;;;;;;6.95;2.50;;;20.50;99.90;;;;;;5050172;28;20181;-60
2022/06/07 08:55:58;;;;;;;4.68;2.08;;;20.60;99.90;;;;;;5050487;28;20177;-60
2022/06/07 08:58:34;;;;;;;9.35;2.25;;;20.80;99.90;;;;;;5050472;28;20624;-60
2022/06/07 09:01:19;;;;;;;4.13;2.00;;;20.50;99.90;;;;;;5049325;28;20204;-60
2022/06/07 09:03:59;;;;;;;0.95;0.60;;;20.20;99.90;;;;;;5050044;28;20678;-60
2022/06/07 09:06:29;;;;;;;3.78;1.25;;;19.50;99.90;;;;;;5055472;28;20260;-60
2022/06/07 09:08:58;;;;;;;6.80;1.15;;;20.40;99.90;;;;;;5067147;28;20187;-60
2022/06/07 09:14:29;;;;;;;6.97;1.23;;;20.90;99.90;;;;;;5050554;28;20219;-60
2022/06/07 09:16:56;;;;;;;7.10;1.10;;;20.90;99.90;;;;;;5053990;28;20260;-59
2022/06/07 09:19:27;;;;;;;4.32;1.00;;;21.10;99.90;;;;;;5053814;28;20670;-59
2022/06/07 09:21:56;;;;;;;7.38;1.55;;;21.60;99.90;;;;;;5054295;28;20209;-60
2022/06/07 09:24:57;;;;;;;2.95;0.90;;;21.80;99.90;;;;;;5054165;28;20166;-60
2022/06/07 09:27:27;;;;;;;3.08;0.68;;;22.50;99.90;;;;;;5046768;28;20184;-59
2022/06/07 09:30:05;;;;;;;1.25;0.60;;;22.60;99.90;;;;;;5053781;28;20554;-58
2022/06/07 09:32:35;;;;;;;2.70;0.63;;;22.60;99.90;;;;;;5053712;28;20177;-59
2022/06/07 09:35:08;;;;;;;0.90;0.50;;;22.10;99.90;;;;;;5054022;28;20207;-60
2022/06/07 09:37:45;;;;;;;2.78;0.80;;;22.00;99.90;;;;;;5053494;28;20181;-60
2022/06/07 09:40:33;;;;;;;2.78;0.80;;;22.00;99.90;;;;;;5053545;28;20207;-60
2022/06/07 09:43:02;;;;;;;1.75;0.50;;;22.30;99.90;;;;;;5054206;28;20173;-60
2022/06/07 09:45:51;;;;;;;2.22;0.60;;;23.00;99.90;;;;;;5052779;28;20703;-60
2022/06/07 09:48:35;;;;;;;2.92;0.90;;;23.00;99.90;;;;;;5042483;28;20585;-60
2022/06/07 09:51:25;;;;;;;3.17;1.00;;;23.00;99.90;;;;;;5053492;28;20162;-60
2022/06/07 09:54:15;;;;;;;5.20;0.90;;;22.60;99.90;;;;;;5026738;28;20236;-68
2022/06/07 09:56:56;;;;;;;3.30;1.08;;;22.10;99.90;;;;;;5052871;28;20655;-67
2022/06/07 09:59:42;;;;;;;2.03;0.90;;;22.80;99.90;;;;;;5053124;28;20174;-61
2022/06/07 10:02:17;;;;;;;3.42;0.80;;;23.10;99.90;;;;;;5053268;28;20201;-63
2022/06/07 10:05:01;;;;;;;0.60;0.43;;;23.80;99.90;;;;;;5052909;28;20160;-60
2022/06/07 10:07:39;;;;;;;2.83;0.60;;;24.40;99.90;;;;;;5052646;28;20173;-59
2022/06/07 10:10:19;;;;;;;1.27;0.50;;;24.70;99.90;;;;;;5052852;28;20172;-60
2022/06/07 10:12:52;;;;;;;2.15;0.70;;;24.00;99.90;;;;;;5052957;28;20177;-60
2022/06/07 10:15:21;;;;;;;1.85;0.73;;;21.90;99.90;;;;;;5053386;28;20181;-60
2022/06/07 10:18:01;;;;;;;0.90;0.40;;;21.90;99.90;;;;;;5052800;28;20234;-60
2022/06/07 10:20:32;;;;;;;0.98;0.60;;;22.10;99.90;;;;;;5031172;28;22113;-60
2022/06/07 10:23:09;;;;;;;0.65;0.40;;;23.30;99.90;;;;;;5042194;28;20180;-60
2022/06/07 10:25:35;;;;;;;8.73;0.90;;;;;;;;;;5050789;28;20256;-60
2022/06/07 10:28:07;;;;;;;3.15;0.57;;;22.50;99.90;;;;;;5050331;28;20603;-60
2022/06/07 10:30:38;;;;;;;2.22;0.60;;;23.30;99.90;;;;;;5050778;28;20568;-59
2022/06/07 10:33:37;;;;;;;1.30;0.50;;;23.30;99.90;;;;;;5050527;28;20195;-60
2022/06/07 10:36:12;;;;;;;0.75;0.40;;;24.40;99.90;;;;;;5038768;28;20189;-59
2022/06/07 10:38:43;;;;;;;1.52;0.60;;;23.70;99.90;;;;;;5052701;28;20195;-60
2022/06/07 10:41:27;;;;;;;1.55;0.43;;;22.50;99.90;;;;;;5051695;28;20571;-60
2022/06/07 10:44:01;;;;;;;1.60;0.63;;;21.90;99.90;;;;;;5055070;28;20177;-60
2022/06/07 10:46:29;;;;;;;1.95;0.50;;;22.10;99.90;;;;;;5066555;28;20635;-60
2022/06/07 10:49:34;;;;;;;6.72;0.50;;;22.30;99.90;;;;;;5052140;28;20507;-60
2022/06/07 10:52:24;;;;;;;2.70;0.57;;;22.50;99.90;;;;;;5052664;28;20189;-59
2022/06/07 10:54:55;;;;;;;1.30;0.50;;;22.30;99.90;;;;;;5043836;28;20294;-60
2022/06/07 10:57:33;;;;;;;1.80;0.75;;;21.70;99.90;;;;;;5052370;28;20173;-60
2022/06/07 11:00:11;;;;;;;4.35;0.88;;;21.30;99.90;;;;;;5052404;28;20705;-60
2022/06/07 11:03:23;;;;;;;2.22;0.68;;;21.30;99.90;;;;;;5052532;28;20232;-60
2022/06/07 11:11:42;;;;;;;2.22;0.98;;;21.00;99.90;;;;;;5052271;28;20595;-59
2022/06/07 11:14:13;;;;;;;2.65;0.77;;;21.00;99.90;;;;;;5052028;28;20715;-59
2022/06/07 11:17:02;;;;;;;0.70;0.50;;;20.90;99.90;;;;;;5052098;28;20243;-59
2022/06/07 11:19:28;;;;;;;3.15;1.15;;;20.70;99.90;;;;;;5052125;28;20180;-60
2022/06/07 11:22:02;;;;;;;1.58;0.93;;;20.40;99.90;;;;;;5052115;28;20208;-59
2022/06/07 11:24:35;;;;;;;2.47;1.00;;;19.00;99.90;;;;;;5052140;28;20658;-58
2022/06/07 11:27:07;;;;;;;1.35;0.90;;;19.00;99.90;;;;;;5052261;28;20271;-59
2022/06/07 11:29:33;;;;;;;2.03;1.00;;;18.70;99.90;;;;;;5052134;28;20292;-59
2022/06/07 11:32:02;;;;;;;1.30;0.88;;;18.50;99.90;;;;;;5051975;28;20162;-60
2022/06/07 11:34:34;;;;;;;2.85;1.00;;;18.30;99.90;;;;;;5051821;28;20161;-59
2022/06/07 11:37:09;;;;;;;6.90;2.97;;;18.20;99.90;;;;;;5051721;28;20256;-59
2022/06/07 11:39:37;;;;;;;17.92;10.63;;;18.30;99.90;;;;;;5051776;28;20165;-60
2022/06/07 11:42:37;;;;;;;16.10;10.48;;;18.30;99.90;;;;;;5051695;28;20209;-60
2022/06/07 11:45:05;;;;;;;18.98;10.70;;;18.40;99.90;;;;;;5051401;28;20204;-60
2022/06/07 11:47:44;;;;;;;20.42;11.48;;;19.00;99.90;;;;;;5051649;28;20177;-60
2022/06/07 11:50:27;;;;;;;17.23;11.38;;;19.00;99.90;;;;;;5051610;28;20650;-60
2022/06/07 11:53:13;;;;;;;17.90;11.05;;;19.10;99.90;;;;;;5051540;28;20661;-60
2022/06/07 11:55:41;;;;;;;19.80;11.38;;;19.20;99.90;;;;;;5051514;28;20238;-60
2022/06/07 11:58:08;;;;;;;20.23;10.80;;;19.20;99.90;;;;;;5051470;28;20264;-60
2022/06/07 12:00:38;;;;;;;16.08;9.60;;;19.10;99.90;;;;;;5051294;28;20189;-61
2022/06/07 12:03:08;;;;;;;18.60;10.77;;;19.20;99.90;;;;;;5051305;28;20509;-60
2022/06/07 12:05:47;;;;;;;23.00;10.52;;;19.30;99.90;;;;;;5051375;28;20180;-60
2022/06/07 12:08:44;;;;;;;21.77;10.85;;;19.60;99.90;;;;;;5051275;28;20177;-60
2022/06/07 12:11:23;;;;;;;19.33;11.38;;;19.70;99.90;;;;;;5051078;28;20178;-60
2022/06/07 12:14:04;;;;;;;18.20;10.48;;;19.80;99.90;;;;;;5051309;28;20275;-60
2022/06/07 12:16:39;;;;;;;16.10;10.65;;;20.00;99.90;;;;;;5051212;28;20173;-60
2022/06/07 12:19:20;;;;;;;14.88;8.65;;;20.10;99.90;;;;;;5051011;28;20703;-60
2022/06/07 12:21:55;;;;;;;9.52;6.13;;;20.50;99.90;;;;;;5034652;28;20212;-61
2022/06/07 12:24:21;;;;;;;11.13;6.70;;;21.60;99.90;;;;;;5049000;28;20299;-61
2022/06/07 12:26:47;;;;;;;9.20;4.43;;;21.60;99.90;;;;;;5050517;28;20185;-61
2022/06/07 12:29:23;;;;;;;8.18;4.00;;;22.30;99.90;;;;;;5050487;28;20632;-61
2022/06/07 12:32:00;;;;;;;4.75;3.08;;;23.30;99.90;;;;;;5050629;28;20184;-60
2022/06/07 12:34:32;;;;;;;3.35;2.72;;;23.30;99.90;;;;;;5048975;28;20247;-61
2022/06/07 12:37:01;;;;;;;3.10;2.20;;;23.60;99.90;;;;;;5048734;28;20230;-61
2022/06/07 12:39:28;;;;;;;0.52;0.50;;;23.80;99.90;;;;;;5033042;28;20539;-62
2022/06/07 12:41:59;;;;;;;1.02;0.50;;;23.70;99.90;;;;;;5050416;28;20701;-61
2022/06/07 12:44:31;;;;;;;2.33;0.60;;;23.00;99.90;;;;;;5050063;28;20165;-61
2022/06/07 12:46:59;;;;;;;0.85;0.60;;;21.20;99.90;;;;;;5050408;28;20185;-60
2022/06/07 12:49:46;;;;;;;0.70;0.55;;;21.00;99.90;;;;;;5050053;28;20169;-61
2022/06/07 12:52:25;;;;;;;1.00;0.73;;;20.00;99.90;;;;;;5050337;28;20173;-62
2022/06/07 12:54:55;;;;;;;1.20;0.80;;;20.20;99.90;;;;;;5050039;28;20173;-61
2022/06/07 12:57:28;;;;;;;2.95;0.65;;;20.10;99.90;;;;;;5049991;28;20177;-61
2022/06/07 13:00:10;;;;;;;1.63;0.77;;;20.20;99.90;;;;;;5050272;28;20181;-61
2022/06/07 13:02:55;;;;;;;2.15;0.60;;;20.30;99.90;;;;;;5050484;28;20213;-61
2022/06/07 13:05:36;;;;;;;1.02;0.68;;;20.70;99.90;;;;;;5046022;28;20216;-61
2022/06/07 13:08:13;;;;;;;2.53;0.50;;;20.40;99.90;;;;;;5043129;28;20176;-60
2022/06/07 13:10:40;;;;;;;1.88;0.60;;;20.60;99.90;;;;;;5049560;28;20180;-60
2022/06/07 13:13:15;;;;;;;3.70;0.70;;;20.90;99.90;;;;;;5050162;28;20179;-60
2022/06/07 13:16:07;;;;;;;3.47;0.70;;;18.70;99.90;;;;;;5049517;28;20177;-60
2022/06/07 13:18:35;;;;;;;1.95;0.60;;;20.90;99.90;;;;;;5031271;28;20176;-60
2022/06/07 13:21:29;;;;;;;0.60;0.50;;;20.90;99.90;;;;;;5054926;28;20667;-60
2022/06/07 13:23:57;;;;;;;2.90;0.70;;;20.80;99.90;;;;;;5054132;28;20587;-61
2022/06/07 13:26:30;;;;;;;1.58;0.60;;;20.80;99.90;;;;;;5050200;28;20223;-60